sensor_id;sensor_type;location;lat;lon;timestamp;pressure;altitude;pressure_sealevel;temperature;humidity
7836;BME280;3963;42.658;23.298;2023-07-13T00:02:04;45320.53;;;-144.44;63.76
7836;BME280;3963;42.658;23.298;2023-07-13T00:04:31;45302.75;;;-144.44;64.66
7836;BME280;3963;42.658;23.298;2023-07-13T00:07:00;45277.06;;;-144.44;64.61
7836;BME280;3963;42.658;23.298;2023-07-13T00:09:27;45290.91;;;-144.44;65.36
7836;BME280;3963;42.658;23.298;2023-07-13T00:11:56;45292.88;;;-144.44;65.67
7836;BME280;3963;42.658;23.298;2023-07-13T00:14:24;45304.72;;;-144.44;65.36
7836;BME280;3963;42.658;23.298;2023-07-13T00:16:51;45271.13;;;-144.44;65.14
7836;BME280;3963;42.658;23.298;2023-07-13T00:19:18;45286.94;;;-144.44;65.02
7836;BME280;3963;42.658;23.298;2023-07-13T00:21:46;45271.13;;;-144.44;65.41
7836;BME280;3963;42.658;23.298;2023-07-13T00:24:15;45277.06;;;-144.44;65.73
7836;BME280;3963;42.658;23.298;2023-07-13T00:26:47;45290.91;;;-144.44;65.80
7836;BME280;3963;42.658;23.298;2023-07-13T00:29:14;45271.13;;;-144.44;65.81
7836;BME280;3963;42.658;23.298;2023-07-13T00:31:41;45279.03;;;-144.44;66.57
7836;BME280;3963;42.658;23.298;2023-07-13T00:34:09;45281.00;;;-144.44;66.22
7836;BME280;3963;42.658;23.298;2023-07-13T00:36:36;45275.09;;;-144.44;66.52
7836;BME280;3963;42.658;23.298;2023-07-13T00:39:03;45281.00;;;-144.44;66.31
7836;BME280;3963;42.658;23.298;2023-07-13T00:41:32;45286.94;;;-144.44;66.86
7836;BME280;3963;42.658;23.298;2023-07-13T00:43:59;45265.22;;;-144.44;67.05
7836;BME280;3963;42.658;23.298;2023-07-13T00:46:28;45271.13;;;-144.44;66.76
7836;BME280;3963;42.658;23.298;2023-07-13T00:48:58;45217.78;;;-144.44;65.07
7836;BME280;3963;42.658;23.298;2023-07-13T00:51:31;45217.78;;;-144.44;64.68
7836;BME280;3963;42.658;23.298;2023-07-13T00:54:03;45251.38;;;-144.44;65.15
7836;BME280;3963;42.658;23.298;2023-07-13T00:56:33;45263.22;;;-144.44;65.92
7836;BME280;3963;42.658;23.298;2023-07-13T00:59:02;45245.44;;;-144.44;66.37
7836;BME280;3963;42.658;23.298;2023-07-13T01:01:29;45253.34;;;-144.44;67.01
7836;BME280;3963;42.658;23.298;2023-07-13T01:03:56;45225.69;;;-144.44;67.23
7836;BME280;3963;42.658;23.298;2023-07-13T01:06:23;45239.50;;;-144.44;67.39
7836;BME280;3963;42.658;23.298;2023-07-13T01:08:49;45231.59;;;-144.44;67.14
7836;BME280;3963;42.658;23.298;2023-07-13T01:11:19;45259.28;;;-144.44;66.71
7836;BME280;3963;42.658;23.298;2023-07-13T01:13:48;45271.13;;;-144.44;66.80
7836;BME280;3963;42.658;23.298;2023-07-13T01:16:21;45245.44;;;-144.44;66.78
7836;BME280;3963;42.658;23.298;2023-07-13T01:18:48;45251.38;;;-144.44;67.34
7836;BME280;3963;42.658;23.298;2023-07-13T01:21:17;45251.38;;;-144.44;68.11
7836;BME280;3963;42.658;23.298;2023-07-13T01:23:45;45247.41;;;-144.44;69.17
7836;BME280;3963;42.658;23.298;2023-07-13T01:26:12;45281.00;;;-144.44;69.21
7836;BME280;3963;42.658;23.298;2023-07-13T01:28:39;45267.19;;;-144.44;69.18
7836;BME280;3963;42.658;23.298;2023-07-13T01:31:06;45251.38;;;-144.44;68.98
7836;BME280;3963;42.658;23.298;2023-07-13T01:33:33;45219.75;;;-144.44;67.71
7836;BME280;3963;42.658;23.298;2023-07-13T01:36:00;45245.44;;;-144.44;68.41
7836;BME280;3963;42.658;23.298;2023-07-13T01:38:28;45245.44;;;-144.44;69.11
7836;BME280;3963;42.658;23.298;2023-07-13T01:40:55;45261.25;;;-144.44;69.42
7836;BME280;3963;42.658;23.298;2023-07-13T01:43:22;45249.41;;;-144.44;69.37
7836;BME280;3963;42.658;23.298;2023-07-13T01:45:49;45259.28;;;-144.44;69.47
7836;BME280;3963;42.658;23.298;2023-07-13T01:48:16;45239.50;;;-144.44;69.91
7836;BME280;3963;42.658;23.298;2023-07-13T01:50:43;45245.44;;;-144.44;70.06
7836;BME280;3963;42.658;23.298;2023-07-13T01:53:10;45243.47;;;-144.44;69.53
7836;BME280;3963;42.658;23.298;2023-07-13T01:55:38;45196.03;;;-144.44;68.90
7836;BME280;3963;42.658;23.298;2023-07-13T01:58:05;45196.03;;;-144.44;68.79
7836;BME280;3963;42.658;23.298;2023-07-13T02:00:32;45215.81;;;-144.44;69.01
7836;BME280;3963;42.658;23.298;2023-07-13T02:02:59;45225.69;;;-144.44;69.40
7836;BME280;3963;42.658;23.298;2023-07-13T02:05:26;45221.72;;;-144.44;69.85
7836;BME280;3963;42.658;23.298;2023-07-13T02:07:52;45203.94;;;-144.44;69.92
7836;BME280;3963;42.658;23.298;2023-07-13T02:10:19;45211.84;;;-144.44;70.79
7836;BME280;3963;42.658;23.298;2023-07-13T02:12:48;45219.75;;;-144.44;70.60
7836;BME280;3963;42.658;23.298;2023-07-13T02:15:15;45227.66;;;-144.44;70.73
7836;BME280;3963;42.658;23.298;2023-07-13T02:17:42;45213.81;;;-144.44;71.31
7836;BME280;3963;42.658;23.298;2023-07-13T02:20:10;45259.28;;;-144.44;72.09
7836;BME280;3963;42.658;23.298;2023-07-13T02:22:37;45221.72;;;-144.44;72.16
7836;BME280;3963;42.658;23.298;2023-07-13T02:25:04;45235.56;;;-144.44;72.49
7836;BME280;3963;42.658;23.298;2023-07-13T02:27:31;45231.59;;;-144.44;72.88
7836;BME280;3963;42.658;23.298;2023-07-13T02:29:59;45211.84;;;-144.44;73.00
7836;BME280;3963;42.658;23.298;2023-07-13T02:32:27;45235.56;;;-144.44;73.85
7836;BME280;3963;42.658;23.298;2023-07-13T02:34:53;45233.59;;;-144.44;74.07
7836;BME280;3963;42.658;23.298;2023-07-13T02:37:20;45203.94;;;-144.44;73.72
7836;BME280;3963;42.658;23.298;2023-07-13T02:39:47;45203.94;;;-144.44;74.16
7836;BME280;3963;42.658;23.298;2023-07-13T02:42:14;45196.03;;;-144.44;74.13
7836;BME280;3963;42.658;23.298;2023-07-13T02:44:41;45182.19;;;-144.44;73.96
7836;BME280;3963;42.658;23.298;2023-07-13T02:47:09;45184.19;;;-144.44;74.56
7836;BME280;3963;42.658;23.298;2023-07-13T02:49:36;45188.13;;;-144.44;74.87
7836;BME280;3963;42.658;23.298;2023-07-13T02:52:04;45168.38;;;-144.44;75.18
7836;BME280;3963;42.658;23.298;2023-07-13T02:54:31;45188.13;;;-144.44;75.00
7836;BME280;3963;42.658;23.298;2023-07-13T02:56:58;45174.28;;;-144.44;75.24
7836;BME280;3963;42.658;23.298;2023-07-13T02:59:25;45178.25;;;-144.44;75.41
7836;BME280;3963;42.658;23.298;2023-07-13T03:01:52;45164.41;;;-144.44;75.49
7836;BME280;3963;42.658;23.298;2023-07-13T03:04:20;45142.69;;;-144.44;75.33
7836;BME280;3963;42.658;23.298;2023-07-13T03:06:47;45152.56;;;-144.44;75.64
7836;BME280;3963;42.658;23.298;2023-07-13T03:09:14;45156.50;;;-144.44;75.92
7836;BME280;3963;42.658;23.298;2023-07-13T03:11:41;45144.66;;;-144.44;75.93
7836;BME280;3963;42.658;23.298;2023-07-13T03:14:08;45117.00;;;-144.44;76.29
7836;BME280;3963;42.658;23.298;2023-07-13T03:16:36;45126.88;;;-144.44;77.01
7836;BME280;3963;42.658;23.298;2023-07-13T03:19:03;45126.88;;;-144.44;76.78
7836;BME280;3963;42.658;23.298;2023-07-13T03:21:31;45118.97;;;-144.44;77.56
7836;BME280;3963;42.658;23.298;2023-07-13T03:23:58;45120.94;;;-144.44;77.97
7836;BME280;3963;42.658;23.298;2023-07-13T03:26:25;45101.19;;;-144.44;78.17
7836;BME280;3963;42.658;23.298;2023-07-13T03:28:52;45109.09;;;-144.44;78.31
7836;BME280;3963;42.658;23.298;2023-07-13T03:31:21;45093.28;;;-144.44;78.79
7836;BME280;3963;42.658;23.298;2023-07-13T03:33:49;45061.66;;;-144.44;78.74
7836;BME280;3963;42.658;23.298;2023-07-13T03:36:18;45065.59;;;-144.44;78.53
7836;BME280;3963;42.658;23.298;2023-07-13T03:38:49;45041.91;;;-144.44;78.30
7836;BME280;3963;42.658;23.298;2023-07-13T03:41:16;45053.75;;;-144.44;78.49
7836;BME280;3963;42.658;23.298;2023-07-13T03:43:44;45022.13;;;-144.44;78.60
7836;BME280;3963;42.658;23.298;2023-07-13T03:46:11;45014.22;;;-144.44;78.33
7836;BME280;3963;42.658;23.298;2023-07-13T03:48:37;45030.03;;;-144.44;78.12
7836;BME280;3963;42.658;23.298;2023-07-13T03:51:05;45018.19;;;-144.44;77.97
7836;BME280;3963;42.658;23.298;2023-07-13T03:53:32;45030.03;;;-144.44;78.32
7836;BME280;3963;42.658;23.298;2023-07-13T03:56:00;45022.13;;;-144.44;78.36
7836;BME280;3963;42.658;23.298;2023-07-13T03:58:32;45018.19;;;-144.44;77.43
7836;BME280;3963;42.658;23.298;2023-07-13T04:01:01;45010.28;;;-144.44;77.37
7836;BME280;3963;42.658;23.298;2023-07-13T04:03:29;44998.41;;;-144.44;77.68
7836;BME280;3963;42.658;23.298;2023-07-13T04:05:58;45006.31;;;-144.44;78.28
7836;BME280;3963;42.658;23.298;2023-07-13T04:08:26;45004.34;;;-144.44;78.36
7836;BME280;3963;42.658;23.298;2023-07-13T04:10:54;45000.41;;;-144.44;78.23
7836;BME280;3963;42.658;23.298;2023-07-13T04:13:22;45010.28;;;-144.44;78.38
7836;BME280;3963;42.658;23.298;2023-07-13T04:15:50;44978.66;;;-144.44;78.23
7836;BME280;3963;42.658;23.298;2023-07-13T04:18:17;44986.56;;;-144.44;77.80
7836;BME280;3963;42.658;23.298;2023-07-13T04:20:45;44992.50;;;-144.44;77.72
7836;BME280;3963;42.658;23.298;2023-07-13T04:23:12;44994.47;;;-144.44;77.68
7836;BME280;3963;42.658;23.298;2023-07-13T04:25:38;44978.66;;;-144.44;77.42
7836;BME280;3963;42.658;23.298;2023-07-13T04:28:05;44986.56;;;-144.44;76.97
7836;BME280;3963;42.658;23.298;2023-07-13T04:30:34;44972.72;;;-144.44;75.35
7836;BME280;3963;42.658;23.298;2023-07-13T04:33:01;44976.69;;;-144.44;74.61
7836;BME280;3963;42.658;23.298;2023-07-13T04:35:28;44964.81;;;-144.44;73.91
7836;BME280;3963;42.658;23.298;2023-07-13T04:37:54;44980.63;;;-144.44;73.99
7836;BME280;3963;42.658;23.298;2023-07-13T04:40:21;45006.31;;;-144.44;73.30
7836;BME280;3963;42.658;23.298;2023-07-13T04:42:48;45008.31;;;-144.44;73.80
7836;BME280;3963;42.658;23.298;2023-07-13T04:45:15;45002.38;;;-144.44;73.27
7836;BME280;3963;42.658;23.298;2023-07-13T04:47:44;45006.31;;;-144.44;73.14
7836;BME280;3963;42.658;23.298;2023-07-13T04:50:12;45035.97;;;-144.44;73.77
7836;BME280;3963;42.658;23.298;2023-07-13T04:52:44;45035.97;;;-144.44;74.24
7836;BME280;3963;42.658;23.298;2023-07-13T04:55:10;45026.09;;;-144.44;73.81
7836;BME280;3963;42.658;23.298;2023-07-13T04:57:37;45016.19;;;-144.44;74.12
7836;BME280;3963;42.658;23.298;2023-07-13T05:00:05;45030.03;;;-144.44;73.27
7836;BME280;3963;42.658;23.298;2023-07-13T05:02:34;45028.06;;;-144.44;72.64
7836;BME280;3963;42.658;23.298;2023-07-13T05:05:03;45041.91;;;-144.44;72.64
7836;BME280;3963;42.658;23.298;2023-07-13T05:07:30;45073.50;;;-144.44;72.39
7836;BME280;3963;42.658;23.298;2023-07-13T05:09:58;45087.34;;;-144.44;73.14
7836;BME280;3963;42.658;23.298;2023-07-13T05:12:25;45065.59;;;-144.44;72.54
7836;BME280;3963;42.658;23.298;2023-07-13T05:14:53;45049.81;;;-144.44;72.32
7836;BME280;3963;42.658;23.298;2023-07-13T05:17:19;45103.16;;;-144.44;73.53
7836;BME280;3963;42.658;23.298;2023-07-13T05:19:46;45085.38;;;-144.44;73.21
7836;BME280;3963;42.658;23.298;2023-07-13T05:22:15;45075.50;;;-144.44;73.13
7836;BME280;3963;42.658;23.298;2023-07-13T05:24:42;45081.41;;;-144.44;72.81
7836;BME280;3963;42.658;23.298;2023-07-13T05:27:08;45089.31;;;-144.44;72.33
7836;BME280;3963;42.658;23.298;2023-07-13T05:29:35;45109.09;;;-144.44;72.08
7836;BME280;3963;42.658;23.298;2023-07-13T05:32:02;45091.28;;;-144.44;71.02
7836;BME280;3963;42.658;23.298;2023-07-13T05:34:29;45083.41;;;-144.44;70.92
7836;BME280;3963;42.658;23.298;2023-07-13T05:36:57;45089.31;;;-144.44;69.61
7836;BME280;3963;42.658;23.298;2023-07-13T05:39:26;45083.41;;;-144.44;70.11
7836;BME280;3963;42.658;23.298;2023-07-13T05:41:53;45093.28;;;-144.44;69.94
7836;BME280;3963;42.658;23.298;2023-07-13T05:44:20;45126.88;;;-144.44;68.94
7836;BME280;3963;42.658;23.298;2023-07-13T05:46:46;45115.00;;;-144.44;67.67
7836;BME280;3963;42.658;23.298;2023-07-13T05:49:13;45117.00;;;-144.44;68.13
7836;BME280;3963;42.658;23.298;2023-07-13T05:51:41;45142.69;;;-144.44;66.65
7836;BME280;3963;42.658;23.298;2023-07-13T05:54:07;45146.63;;;-144.44;65.20
7836;BME280;3963;42.658;23.298;2023-07-13T05:56:37;45164.41;;;-144.44;63.57
7836;BME280;3963;42.658;23.298;2023-07-13T05:59:04;45213.81;;;-144.44;63.73
7836;BME280;3963;42.658;23.298;2023-07-13T06:01:33;45180.22;;;-144.44;63.95
7836;BME280;3963;42.658;23.298;2023-07-13T06:03:59;45205.91;;;-144.44;63.29
7836;BME280;3963;42.658;23.298;2023-07-13T06:06:26;45219.75;;;-144.44;62.88
7836;BME280;3963;42.658;23.298;2023-07-13T06:08:53;45237.53;;;-144.44;62.02
7836;BME280;3963;42.658;23.298;2023-07-13T06:11:22;45269.16;;;-144.44;58.85
7836;BME280;3963;42.658;23.298;2023-07-13T06:13:51;45298.81;;;-144.44;54.92
7836;BME280;3963;42.658;23.298;2023-07-13T06:16:18;45328.44;;;-144.44;55.10
7836;BME280;3963;42.658;23.298;2023-07-13T06:18:45;45330.44;;;-144.44;54.20
7836;BME280;3963;42.658;23.298;2023-07-13T06:21:14;45367.97;;;-144.44;53.83
7836;BME280;3963;42.658;23.298;2023-07-13T06:23:41;45358.09;;;-144.44;52.63
7836;BME280;3963;42.658;23.298;2023-07-13T06:26:09;45383.78;;;-144.44;54.26
7836;BME280;3963;42.658;23.298;2023-07-13T06:28:36;45381.81;;;-144.44;55.70
7836;BME280;3963;42.658;23.298;2023-07-13T06:31:07;45411.44;;;-144.44;55.57
7836;BME280;3963;42.658;23.298;2023-07-13T06:33:34;45399.59;;;-144.44;54.60
7836;BME280;3963;42.658;23.298;2023-07-13T06:36:01;45417.38;;;-144.44;55.38
7836;BME280;3963;42.658;23.298;2023-07-13T06:38:28;45403.53;;;-144.44;55.21
7836;BME280;3963;42.658;23.298;2023-07-13T06:40:55;45437.16;;;-144.44;54.40
7836;BME280;3963;42.658;23.298;2023-07-13T06:43:22;45458.88;;;-144.44;53.40
7836;BME280;3963;42.658;23.298;2023-07-13T06:45:50;45482.59;;;-144.44;52.72
7836;BME280;3963;42.658;23.298;2023-07-13T06:48:19;45532.00;;;-144.44;50.91
7836;BME280;3963;42.658;23.298;2023-07-13T06:50:47;45577.47;;;-144.44;48.56
7836;BME280;3963;42.658;23.298;2023-07-13T06:53:15;45615.03;;;-144.44;47.01
7836;BME280;3963;42.658;23.298;2023-07-13T06:55:43;45630.84;;;-144.44;45.80
7836;BME280;3963;42.658;23.298;2023-07-13T06:58:10;45640.72;;;-144.44;46.11
7836;BME280;3963;42.658;23.298;2023-07-13T07:00:37;45682.22;;;-144.44;45.24
7836;BME280;3963;42.658;23.298;2023-07-13T07:03:05;45709.91;;;-144.44;44.76
7836;BME280;3963;42.658;23.298;2023-07-13T07:05:34;45757.34;;;-144.44;43.83
7836;BME280;3963;42.658;23.298;2023-07-13T07:08:01;45800.81;;;-144.44;42.79
7836;BME280;3963;42.658;23.298;2023-07-13T07:10:29;45844.31;;;-144.44;42.35
7836;BME280;3963;42.658;23.298;2023-07-13T07:12:56;45828.50;;;-144.44;41.56
7836;BME280;3963;42.658;23.298;2023-07-13T07:15:23;45911.50;;;-144.44;41.05
7836;BME280;3963;42.658;23.298;2023-07-13T07:17:50;45919.41;;;-144.44;38.95
7836;BME280;3963;42.658;23.298;2023-07-13T07:20:16;45919.41;;;-144.44;39.58
7836;BME280;3963;42.658;23.298;2023-07-13T07:22:44;45972.78;;;-144.44;39.05
7836;BME280;3963;42.658;23.298;2023-07-13T07:25:11;46022.19;;;-144.44;38.36
7836;BME280;3963;42.658;23.298;2023-07-13T07:27:38;46075.56;;;-144.44;36.52
7836;BME280;3963;42.658;23.298;2023-07-13T07:30:06;46049.88;;;-144.44;36.25
7836;BME280;3963;42.658;23.298;2023-07-13T07:32:33;46125.00;;;-144.44;35.00
7836;BME280;3963;42.658;23.298;2023-07-13T07:35:00;46138.84;;;-144.44;34.53
7836;BME280;3963;42.658;23.298;2023-07-13T07:37:27;46168.47;;;-144.44;34.29
7836;BME280;3963;42.658;23.298;2023-07-13T07:39:55;46178.38;;;-144.44;33.89
7836;BME280;3963;42.658;23.298;2023-07-13T07:42:21;46251.50;;;-144.44;33.87
7836;BME280;3963;42.658;23.298;2023-07-13T07:44:48;46211.97;;;-144.44;34.01
7836;BME280;3963;42.658;23.298;2023-07-13T07:47:15;46257.44;;;-144.44;33.86
7836;BME280;3963;42.658;23.298;2023-07-13T07:49:42;46336.50;;;-144.44;33.33
7836;BME280;3963;42.658;23.298;2023-07-13T07:52:08;46314.78;;;-144.44;33.20
7836;BME280;3963;42.658;23.298;2023-07-13T07:54:35;46370.13;;;-144.44;32.80
7836;BME280;3963;42.658;23.298;2023-07-13T07:57:04;46374.06;;;-144.44;32.95
7836;BME280;3963;42.658;23.298;2023-07-13T07:59:31;46360.25;;;-144.44;32.90
7836;BME280;3963;42.658;23.298;2023-07-13T08:01:58;46427.47;;;-144.44;32.33
7836;BME280;3963;42.658;23.298;2023-07-13T08:04:24;46468.97;;;-144.44;32.27
7836;BME280;3963;42.658;23.298;2023-07-13T08:06:51;46595.50;;;-144.44;31.49
7836;BME280;3963;42.658;23.298;2023-07-13T08:09:18;46563.88;;;-144.44;31.92
7836;BME280;3963;42.658;23.298;2023-07-13T08:11:44;46609.34;;;-144.44;31.81
7836;BME280;3963;42.658;23.298;2023-07-13T08:14:13;46666.69;;;-144.44;31.64
7836;BME280;3963;42.658;23.298;2023-07-13T08:16:40;46619.22;;;-144.44;31.44
7836;BME280;3963;42.658;23.298;2023-07-13T08:19:06;46593.53;;;-144.44;31.68
7836;BME280;3963;42.658;23.298;2023-07-13T08:21:33;46642.94;;;-144.44;31.91
7836;BME280;3963;42.658;23.298;2023-07-13T08:24:00;46694.34;;;-144.44;31.69
7836;BME280;3963;42.658;23.298;2023-07-13T08:26:27;46741.81;;;-144.44;31.90
7836;BME280;3963;42.658;23.298;2023-07-13T08:28:54;46858.47;;;-144.44;30.84
7836;BME280;3963;42.658;23.298;2023-07-13T08:31:22;46909.88;;;-144.44;30.49
7836;BME280;3963;42.658;23.298;2023-07-13T08:33:48;46826.81;;;-144.44;30.22
7836;BME280;3963;42.658;23.298;2023-07-13T08:36:15;46773.44;;;-144.44;30.43
7836;BME280;3963;42.658;23.298;2023-07-13T08:38:42;46888.13;;;-144.44;30.12
7836;BME280;3963;42.658;23.298;2023-07-13T08:41:12;46939.53;;;-144.44;30.01
7836;BME280;3963;42.658;23.298;2023-07-13T08:43:39;46983.03;;;-144.44;29.40
7836;BME280;3963;42.658;23.298;2023-07-13T08:46:11;46959.28;;;-144.44;29.02
7836;BME280;3963;42.658;23.298;2023-07-13T08:48:45;46899.97;;;-144.44;29.58
7836;BME280;3963;42.658;23.298;2023-07-13T08:51:24;46941.50;;;-144.44;29.32
7836;BME280;3963;42.658;23.298;2023-07-13T08:53:57;46977.09;;;-144.44;29.11
7836;BME280;3963;42.658;23.298;2023-07-13T08:56:25;46898.00;;;-144.44;29.16
7836;BME280;3963;42.658;23.298;2023-07-13T08:58:56;46911.84;;;-144.44;28.92
7836;BME280;3963;42.658;23.298;2023-07-13T09:01:28;46983.03;;;-144.44;29.30
7836;BME280;3963;42.658;23.298;2023-07-13T09:04:03;46945.47;;;-144.44;29.36
7836;BME280;3963;42.658;23.298;2023-07-13T09:06:37;47081.88;;;-144.44;29.01
7836;BME280;3963;42.658;23.298;2023-07-13T09:09:10;47123.41;;;-144.44;28.59
7836;BME280;3963;42.658;23.298;2023-07-13T09:11:47;47125.38;;;-144.44;28.30
7836;BME280;3963;42.658;23.298;2023-07-13T09:14:33;47109.56;;;-144.44;28.25
7836;BME280;3963;42.658;23.298;2023-07-13T09:17:03;47129.34;;;-144.44;28.29
7836;BME280;3963;42.658;23.298;2023-07-13T09:19:34;47089.81;;;-144.44;28.77
7836;BME280;3963;42.658;23.298;2023-07-13T09:22:04;47188.66;;;-144.44;28.16
7836;BME280;3963;42.658;23.298;2023-07-13T09:24:37;47366.63;;;-144.44;27.69
7836;BME280;3963;42.658;23.298;2023-07-13T09:27:14;47307.31;;;-144.44;27.76
7836;BME280;3963;42.658;23.298;2023-07-13T09:29:47;47323.13;;;-144.44;27.72
7836;BME280;3963;42.658;23.298;2023-07-13T09:32:18;47338.97;;;-144.44;27.58
7836;BME280;3963;42.658;23.298;2023-07-13T09:34:52;47299.41;;;-144.44;28.26
7836;BME280;3963;42.658;23.298;2023-07-13T09:37:21;47301.38;;;-144.44;27.52
7836;BME280;3963;42.658;23.298;2023-07-13T09:39:50;47441.78;;;-144.44;27.42
7836;BME280;3963;42.658;23.298;2023-07-13T09:42:21;47631.63;;;-144.44;27.19
7836;BME280;3963;42.658;23.298;2023-07-13T09:44:53;47669.22;;;-144.44;27.12
7836;BME280;3963;42.658;23.298;2023-07-13T09:47:22;47509.03;;;-144.44;27.51
7836;BME280;3963;42.658;23.298;2023-07-13T09:49:56;47471.44;;;-144.44;27.74
7836;BME280;3963;42.658;23.298;2023-07-13T09:52:26;47481.34;;;-144.44;27.17
7836;BME280;3963;42.658;23.298;2023-07-13T09:54:54;47574.28;;;-144.44;27.38
7836;BME280;3963;42.658;23.298;2023-07-13T09:57:26;47572.31;;;-144.44;27.04
7836;BME280;3963;42.658;23.298;2023-07-13T09:59:55;47623.72;;;-144.44;27.03
7836;BME280;3963;42.658;23.298;2023-07-13T10:02:27;47681.06;;;-144.44;26.67
7836;BME280;3963;42.658;23.298;2023-07-13T10:05:01;47659.31;;;-144.44;26.73
7836;BME280;3963;42.658;23.298;2023-07-13T10:07:30;47627.69;;;-144.44;26.62
7836;BME280;3963;42.658;23.298;2023-07-13T10:09:59;47536.72;;;-144.44;24.30
7836;BME280;3963;42.658;23.298;2023-07-13T10:12:29;47613.84;;;-144.44;25.16
7836;BME280;3963;42.658;23.298;2023-07-13T10:14:58;47698.88;;;-144.44;23.36
7836;BME280;3963;42.658;23.298;2023-07-13T10:17:29;47698.88;;;-144.44;22.88
7836;BME280;3963;42.658;23.298;2023-07-13T10:20:01;47657.34;;;-144.44;23.20
7836;BME280;3963;42.658;23.298;2023-07-13T10:22:36;47779.97;;;-144.44;23.05
7836;BME280;3963;42.658;23.298;2023-07-13T10:25:14;47750.28;;;-144.44;22.82
7836;BME280;3963;42.658;23.298;2023-07-13T10:27:42;47861.06;;;-144.44;22.69
7836;BME280;3963;42.658;23.298;2023-07-13T10:30:13;47908.53;;;-144.44;22.38
7836;BME280;3963;42.658;23.298;2023-07-13T10:32:42;47722.59;;;-144.44;22.64
7836;BME280;3963;42.658;23.298;2023-07-13T10:35:12;47704.81;;;-144.44;22.96
7836;BME280;3963;42.658;23.298;2023-07-13T10:37:44;47813.59;;;-144.44;22.59
7836;BME280;3963;42.658;23.298;2023-07-13T10:40:14;47776.00;;;-144.44;22.71
7836;BME280;3963;42.658;23.298;2023-07-13T10:42:46;47825.44;;;-144.44;22.49
7836;BME280;3963;42.658;23.298;2023-07-13T10:45:15;47902.59;;;-144.44;22.52
7836;BME280;3963;42.658;23.298;2023-07-13T10:47:43;47851.16;;;-144.44;22.47
7836;BME280;3963;42.658;23.298;2023-07-13T10:50:18;47754.25;;;-144.44;22.48
7836;BME280;3963;42.658;23.298;2023-07-13T10:52:47;47863.03;;;-144.44;22.88
7836;BME280;3963;42.658;23.298;2023-07-13T10:55:33;48027.19;;;-144.44;22.29
7836;BME280;3963;42.658;23.298;2023-07-13T10:58:01;48019.28;;;-144.44;22.82
7836;BME280;3963;42.658;23.298;2023-07-13T11:00:32;48029.16;;;-144.44;22.39
7836;BME280;3963;42.658;23.298;2023-07-13T11:03:00;47866.97;;;-144.44;22.45
7836;BME280;3963;42.658;23.298;2023-07-13T11:05:32;47829.41;;;-144.44;22.67
7836;BME280;3963;42.658;23.298;2023-07-13T11:08:12;47821.50;;;-144.44;22.85
7836;BME280;3963;42.658;23.298;2023-07-13T11:10:49;47770.06;;;-144.44;22.93
7836;BME280;3963;42.658;23.298;2023-07-13T11:13:38;47694.91;;;-144.44;23.24
7836;BME280;3963;42.658;23.298;2023-07-13T11:16:37;47728.53;;;-144.44;23.16
7836;BME280;3963;42.658;23.298;2023-07-13T11:22:14;47511.00;;;-144.44;23.78
7836;BME280;3963;42.658;23.298;2023-07-13T11:24:52;47578.25;;;-144.44;23.38
7836;BME280;3963;42.658;23.298;2023-07-13T11:27:33;47378.50;;;-144.44;23.74
7836;BME280;3963;42.658;23.298;2023-07-13T11:30:21;47396.31;;;-144.44;23.96
7836;BME280;3963;42.658;23.298;2023-07-13T11:32:51;47155.06;;;-144.44;24.82
7836;BME280;3963;42.658;23.298;2023-07-13T11:35:23;47265.78;;;-144.44;24.66
7836;BME280;3963;42.658;23.298;2023-07-13T11:37:53;46959.28;;;-144.44;25.43
7836;BME280;3963;42.658;23.298;2023-07-13T11:40:22;47042.34;;;-144.44;24.95
7836;BME280;3963;42.658;23.298;2023-07-13T11:42:59;46998.84;;;-144.44;24.25
7836;BME280;3963;42.658;23.298;2023-07-13T11:45:25;47060.13;;;-144.44;24.69
7836;BME280;3963;42.658;23.298;2023-07-13T11:47:53;47147.16;;;-144.44;24.36
7836;BME280;3963;42.658;23.298;2023-07-13T11:50:23;47224.25;;;-144.44;24.40
7836;BME280;3963;42.658;23.298;2023-07-13T11:52:53;47208.44;;;-144.44;23.76
7836;BME280;3963;42.658;23.298;2023-07-13T11:55:22;47070.03;;;-144.44;23.84
7836;BME280;3963;42.658;23.298;2023-07-13T11:57:53;47026.53;;;-144.44;24.43
7836;BME280;3963;42.658;23.298;2023-07-13T12:00:29;47022.56;;;-144.44;24.98
7836;BME280;3963;42.658;23.298;2023-07-13T12:02:59;47042.34;;;-144.44;25.01
7836;BME280;3963;42.658;23.298;2023-07-13T12:05:28;47006.75;;;-144.44;24.35
7836;BME280;3963;42.658;23.298;2023-07-13T12:07:57;47068.06;;;-144.44;23.53
7836;BME280;3963;42.658;23.298;2023-07-13T12:10:26;47026.53;;;-144.44;24.19
7836;BME280;3963;42.658;23.298;2023-07-13T12:12:56;47117.47;;;-144.44;24.42
7836;BME280;3963;42.658;23.298;2023-07-13T12:15:27;46977.09;;;-144.44;25.05
7836;BME280;3963;42.658;23.298;2023-07-13T12:17:56;46949.41;;;-144.44;25.10
7836;BME280;3963;42.658;23.298;2023-07-13T12:20:25;46846.59;;;-144.44;25.63
7836;BME280;3963;42.658;23.298;2023-07-13T12:22:53;46955.34;;;-144.44;25.73
7836;BME280;3963;42.658;23.298;2023-07-13T12:25:22;46961.28;;;-144.44;25.24
7836;BME280;3963;42.658;23.298;2023-07-13T12:27:50;46957.31;;;-144.44;25.51
7836;BME280;3963;42.658;23.298;2023-07-13T12:30:27;47034.44;;;-144.44;25.90
7836;BME280;3963;42.658;23.298;2023-07-13T12:32:57;47052.22;;;-144.44;26.03
7836;BME280;3963;42.658;23.298;2023-07-13T12:35:29;47012.69;;;-144.44;25.58
7836;BME280;3963;42.658;23.298;2023-07-13T12:38:00;47062.13;;;-144.44;25.93
7836;BME280;3963;42.658;23.298;2023-07-13T12:40:33;47066.06;;;-144.44;25.77
7836;BME280;3963;42.658;23.298;2023-07-13T12:43:02;46975.13;;;-144.44;26.85
7836;BME280;3963;42.658;23.298;2023-07-13T12:45:32;46996.88;;;-144.44;26.70
7836;BME280;3963;42.658;23.298;2023-07-13T12:48:04;47079.91;;;-144.44;26.62
7836;BME280;3963;42.658;23.298;2023-07-13T12:50:38;47129.34;;;-144.44;25.99
7836;BME280;3963;42.658;23.298;2023-07-13T12:53:12;47050.25;;;-144.44;24.75
7836;BME280;3963;42.658;23.298;2023-07-13T12:55:46;47054.22;;;-144.44;25.27
7836;BME280;3963;42.658;23.298;2023-07-13T12:58:18;47040.38;;;-144.44;25.47
7836;BME280;3963;42.658;23.298;2023-07-13T13:00:49;47105.63;;;-144.44;25.94
7836;BME280;3963;42.658;23.298;2023-07-13T13:03:22;47107.59;;;-144.44;26.08